Time;durP1;ratioP1;P1;durP2;ratioP2;P2;SDS_P1;SDS_P2;PMS_P1;PMS_P2;Temp;Humidity;BMP_temperature;BMP_pressure;BME280_temperature;BME280_humidity;BME280_pressure;Samples;Min_cycle;Max_cycle;Signal;HPM_P1;HPM_P2
2021/11/11 00:00:50;;;;;;;;;;;;;;;-0.51;56.34;96119.63;5004232;28;19929;-74
2021/11/11 00:03:16;;;;;;;;;;;;;;;-0.41;57.68;96124.28;5003212;28;19945;-76
2021/11/11 00:05:41;;;;;;;;;;;;;;;-0.35;56.39;96124.72;5036661;28;19910;-74
2021/11/11 00:08:08;;;;;;;;;;;;;;;-0.33;53.83;96124.63;5002633;28;19928;-76
2021/11/11 00:10:33;;;;;;;;;;;;;;;-0.33;56.85;96119.41;4986948;28;20392;-72
2021/11/11 00:12:59;;;;;;;;;;;;;;;-0.31;58.03;96117.53;5035796;28;20016;-70
2021/11/11 00:15:24;;;;;;;;;;;;;;;-0.32;58.06;96115.84;5004189;28;19995;-71
2021/11/11 00:17:49;;;;;;;;;;;;;;;-0.34;59.23;96115.94;5002927;28;20222;-72
2021/11/11 00:20:16;;;;;;;;;;;;;;;-0.37;54.52;96110.06;5002436;28;19933;-71
2021/11/11 00:22:41;;;;;;;;;;;;;;;-0.34;59.69;96125.59;5004633;28;20305;-72
2021/11/11 00:25:07;;;;;;;;;;;;;;;-0.33;59.22;96119.41;5003636;28;19928;-74
2021/11/11 00:27:32;;;;;;;;;;;;;;;-0.35;57.08;96110.81;5004130;28;20316;-72
2021/11/11 00:29:57;;;;;;;;;;;;;;;-0.44;50.59;96112.22;5004121;28;19953;-73
2021/11/11 00:32:23;;;;;;;;;;;;;;;-0.47;58.62;96107.19;5003938;28;19922;-74
2021/11/11 00:34:52;;;;;;;;;;;;;;;-0.45;57.51;96105.31;5002039;28;20480;-73
2021/11/11 00:37:18;;;;;;;;;;;;;;;-0.41;53.58;96108.59;5004120;28;20401;-75
2021/11/11 00:39:43;;;;;;;;;;;;;;;-0.40;54.87;96108.50;5003353;28;20241;-75
2021/11/11 00:42:08;;;;;;;;;;;;;;;-0.41;56.96;96112.03;5000269;28;20008;-74
2021/11/11 00:44:33;;;;;;;;;;;;;;;-0.34;58.43;96115.94;4998074;28;19922;-73
2021/11/11 00:46:59;;;;;;;;;;;;;;;-0.28;56.97;96109.47;5003701;28;20360;-76
2021/11/11 00:49:24;;;;;;;;;;;;;;;-0.28;58.61;96112.09;5002102;28;19956;-73
2021/11/11 00:51:50;;;;;;;;;;;;;;;-0.29;54.83;96112.19;5003868;28;20428;-71
2021/11/11 00:54:15;;;;;;;;;;;;;;;-0.28;55.50;96111.25;5018512;28;20286;-70
2021/11/11 00:56:40;;;;;;;;;;;;;;;-0.33;52.91;96111.56;5003290;28;20331;-70
2021/11/11 00:59:06;;;;;;;;;;;;;;;-0.51;55.45;96106.53;5035051;28;19925;-74
2021/11/11 01:01:32;;;;;;;;;;;;;;;-0.49;61.10;96123.00;5003361;28;19918;-74
2021/11/11 01:03:58;;;;;;;;;;;;;;;-0.36;58.97;96117.84;5003281;28;19925;-71
2021/11/11 01:06:25;;;;;;;;;;;;;;;-0.47;50.40;96107.19;5002026;28;19922;-73
2021/11/11 01:08:50;;;;;;;;;;;;;;;-0.46;56.37;96111.50;4998327;28;19928;-75
2021/11/11 01:11:16;;;;;;;;;;;;;;;-0.47;58.81;96115.06;4998809;28;19946;-75
2021/11/11 01:13:41;;;;;;;;;;;;;;;-0.49;55.48;96109.91;5000056;28;20308;-75
2021/11/11 01:16:06;;;;;;;;;;;;;;;-0.52;54.66;96102.25;4998937;28;19925;-65
2021/11/11 01:18:31;;;;;;;;;;;;;;;-0.43;57.60;96101.66;4998860;28;20344;-63
2021/11/11 01:20:57;;;;;;;;;;;;;;;-0.40;55.57;96103.25;4999622;28;19969;-63
2021/11/11 01:23:22;;;;;;;;;;;;;;;-0.39;54.32;96111.94;4998735;28;19930;-64
2021/11/11 01:25:47;;;;;;;;;;;;;;;-0.37;55.52;96107.47;5000984;28;20020;-64
2021/11/11 01:28:13;;;;;;;;;;;;;;;-0.38;59.36;96113.59;5000511;28;19925;-63
2021/11/11 01:30:40;;;;;;;;;;;;;;;-0.35;60.30;96108.19;5001530;28;20012;-64
2021/11/11 01:33:05;;;;;;;;;;;;;;;-0.32;57.99;96115.84;5000735;28;20368;-64
2021/11/11 01:35:31;;;;;;;;;;;;;;;-0.33;57.50;96119.41;5000159;28;19928;-64
2021/11/11 01:37:56;;;;;;;;;;;;;;;-0.32;59.74;96100.16;5000753;28;19983;-63
2021/11/11 01:40:21;;;;;;;;;;;;;;;-0.32;59.18;96105.38;4999325;28;19925;-64
2021/11/11 01:42:46;;;;;;;;;;;;;;;-0.31;56.24;96104.44;5000716;28;19956;-64
2021/11/11 01:45:12;;;;;;;;;;;;;;;-0.74;59.29;96108.00;5000621;28;20194;-63
2021/11/11 01:47:38;;;;;;;;;;;;;;;-0.55;57.18;96102.44;5000274;28;20224;-62
2021/11/11 01:50:04;;;;;;;;;;;;;;;-0.41;59.96;96101.56;5000822;28;19948;-61
2021/11/11 01:52:29;;;;;;;;;;;;;;;-0.39;60.58;96096.22;4999188;28;19921;-63
2021/11/11 01:54:54;;;;;;;;;;;;;;;-0.26;60.77;96091.91;4999553;28;19980;-62
2021/11/11 01:57:20;;;;;;;;;;;;;;;-0.24;58.43;96081.34;4999181;28;19922;-61
2021/11/11 01:59:45;;;;;;;;;;;;;;;-0.11;57.95;96081.38;4991572;28;19960;-63
2021/11/11 02:02:10;;;;;;;;;;;;;;;-0.16;59.63;96075.59;5000305;28;20168;-63
2021/11/11 02:04:35;;;;;;;;;;;;;;;-0.22;59.15;96066.38;5000310;28;19921;-62
2021/11/11 02:07:01;;;;;;;;;;;;;;;-0.26;60.13;96060.50;5000149;28;19922;-66
2021/11/11 02:09:26;;;;;;;;;;;;;;;-0.26;60.59;96064.88;4999687;28;19926;-63
2021/11/11 02:11:51;;;;;;;;;;;;;;;-0.26;60.57;96064.88;5000044;28;19918;-63
2021/11/11 02:14:16;;;;;;;;;;;;;;;-0.26;60.29;96064.88;5000690;28;20449;-63
2021/11/11 02:16:42;;;;;;;;;;;;;;;-0.29;58.99;96070.31;5000325;28;19964;-64
2021/11/11 02:19:08;;;;;;;;;;;;;;;-0.33;60.39;96073.13;5014954;28;19918;-63
2021/11/11 02:21:34;;;;;;;;;;;;;;;-0.38;57.71;96071.75;4998751;28;19984;-62
2021/11/11 02:24:00;;;;;;;;;;;;;;;-0.43;57.63;96080.72;5015090;28;20382;-63
2021/11/11 02:26:25;;;;;;;;;;;;;;;-0.47;56.50;96087.09;5000885;28;19913;-62
2021/11/11 02:28:50;;;;;;;;;;;;;;;-0.46;58.01;96080.94;5003918;28;19917;-63
2021/11/11 02:31:15;;;;;;;;;;;;;;;-0.49;58.86;96081.13;5003889;28;20394;-63
2021/11/11 02:33:41;;;;;;;;;;;;;;;-0.48;59.79;96082.81;5004082;28;19913;-63
2021/11/11 02:36:07;;;;;;;;;;;;;;;-0.50;61.50;96079.47;5004308;28;19928;-63
2021/11/11 02:38:32;;;;;;;;;;;;;;;-0.48;59.16;96074.09;5004343;28;19925;-63
2021/11/11 02:41:00;;;;;;;;;;;;;;;-0.53;55.26;96069.19;5004158;28;19926;-64
2021/11/11 02:43:25;;;;;;;;;;;;;;;-0.56;59.98;96074.59;5004300;28;19921;-63
2021/11/11 02:45:51;;;;;;;;;;;;;;;-0.51;56.48;96083.00;5004223;28;19917;-64
2021/11/11 02:48:18;;;;;;;;;;;;;;;-0.44;59.75;96078.19;5002851;28;19994;-63
2021/11/11 02:50:43;;;;;;;;;;;;;;;-0.52;60.37;96077.84;5003858;28;20468;-64
2021/11/11 02:53:08;;;;;;;;;;;;;;;-0.58;61.85;96073.84;5003686;28;20071;-63
2021/11/11 02:55:34;;;;;;;;;;;;;;;-0.64;55.26;96082.09;5002560;28;19925;-64
2021/11/11 02:57:59;;;;;;;;;;;;;;;-0.57;57.90;96072.94;4991590;28;20525;-63
2021/11/11 03:00:29;;;;;;;;;;;;;;;-0.51;57.37;96082.16;5003782;28;19925;-64
2021/11/11 03:02:54;;;;;;;;;;;;;;;-0.66;54.33;96078.72;5003730;28;20486;-63
2021/11/11 03:05:20;;;;;;;;;;;;;;;-0.57;60.25;96088.63;5003867;28;20008;-63
2021/11/11 03:07:46;;;;;;;;;;;;;;;-0.48;59.56;96085.41;5003908;28;19917;-63
2021/11/11 03:10:12;;;;;;;;;;;;;;;-0.44;58.79;96088.66;5003874;28;19936;-64
2021/11/11 03:12:37;;;;;;;;;;;;;;;-0.44;59.45;96088.66;5003758;28;19929;-64
2021/11/11 03:15:03;;;;;;;;;;;;;;;-0.44;59.79;96084.28;5003284;28;19918;-64
2021/11/11 03:17:28;;;;;;;;;;;;;;;-0.49;61.00;96082.91;5003528;28;19913;-64
2021/11/11 03:19:53;;;;;;;;;;;;;;;-0.71;52.83;96074.63;5003281;28;19925;-61
2021/11/11 03:22:20;;;;;;;;;;;;;;;-0.79;55.87;96076.03;5002340;28;20363;-61
2021/11/11 03:24:45;;;;;;;;;;;;;;;-0.79;58.10;96071.66;5002743;28;19956;-61
2021/11/11 03:27:10;;;;;;;;;;;;;;;-0.78;54.45;96072.50;5002211;28;19968;-64
2021/11/11 03:29:36;;;;;;;;;;;;;;;-0.90;55.86;96068.88;5002439;28;19924;-61
2021/11/11 03:32:01;;;;;;;;;;;;;;;-0.83;56.49;96063.16;5001950;28;19918;-60
2021/11/11 03:34:26;;;;;;;;;;;;;;;-0.75;60.30;96054.84;5002387;28;19921;-60
2021/11/11 03:36:52;;;;;;;;;;;;;;;-0.72;54.34;96052.03;5002488;28;19918;-63
2021/11/11 03:39:18;;;;;;;;;;;;;;;-0.68;59.81;96057.06;5001420;28;20012;-63
2021/11/11 03:41:43;;;;;;;;;;;;;;;-0.66;59.75;96057.81;5001426;28;19937;-63
2021/11/11 03:44:09;;;;;;;;;;;;;;;-0.65;56.83;96047.25;5001337;28;19918;-63
2021/11/11 03:46:34;;;;;;;;;;;;;;;-0.64;56.88;96053.31;5002324;28;20381;-62
2021/11/11 03:49:00;;;;;;;;;;;;;;;-0.62;59.16;96059.28;5001294;28;20011;-62
2021/11/11 03:51:25;;;;;;;;;;;;;;;-0.64;57.30;96059.38;5002021;28;19966;-62
2021/11/11 03:53:52;;;;;;;;;;;;;;;-0.64;54.68;96063.78;5002241;28;19917;-63
2021/11/11 03:56:18;;;;;;;;;;;;;;;-0.65;56.47;96068.16;5001640;28;19918;-61
2021/11/11 03:58:45;;;;;;;;;;;;;;;-0.68;56.86;96062.31;5001950;28;19928;-63
2021/11/11 04:01:10;;;;;;;;;;;;;;;-0.64;57.65;96058.56;5001629;28;19921;-62
2021/11/11 04:03:35;;;;;;;;;;;;;;;-0.57;59.45;96075.53;5001507;28;19929;-63
2021/11/11 04:06:01;;;;;;;;;;;;;;;-0.51;57.95;96074.31;5001425;28;20020;-63
2021/11/11 04:08:26;;;;;;;;;;;;;;;-0.57;56.34;96078.16;5001223;28;19917;-63
2021/11/11 04:10:51;;;;;;;;;;;;;;;-0.57;58.61;96071.13;5001117;28;20294;-62
2021/11/11 04:13:16;;;;;;;;;;;;;;;-0.55;56.79;96075.47;5001519;28;19967;-63
2021/11/11 04:15:42;;;;;;;;;;;;;;;-0.52;57.30;96081.31;5001277;28;19918;-63
2021/11/11 04:18:07;;;;;;;;;;;;;;;-0.52;58.54;96080.47;5001076;28;19924;-63
2021/11/11 04:20:32;;;;;;;;;;;;;;;-0.49;59.71;96086.38;4937024;28;1842570;-62
2021/11/11 04:22:58;;;;;;;;;;;;;;;-0.46;59.39;96080.94;5002085;28;20228;-63
2021/11/11 04:25:33;;;;;;;;;;;;;;;-0.45;60.57;96087.84;5002466;28;20284;-63
2021/11/11 04:28:04;;;;;;;;;;;;;;;-0.46;59.62;96088.78;5001803;28;20056;-63
2021/11/11 04:30:31;;;;;;;;;;;;;;;-0.50;61.23;96087.31;5002495;28;20026;-63
2021/11/11 04:32:57;;;;;;;;;;;;;;;-0.52;60.83;96090.94;5002222;28;19918;-63
2021/11/11 04:35:22;;;;;;;;;;;;;;;-0.58;59.69;96089.53;5002023;28;19948;-62
2021/11/11 04:40:46;;;;;;;;;;;;;;;-0.58;58.46;96087.78;5001718;28;19956;-62
2021/11/11 04:43:24;;;;;;;;;;;;;;;-0.62;55.03;96085.44;4989602;28;20444;-62
2021/11/11 04:51:15;;;;;;;;;;;;;;;-0.76;58.02;96095.00;5000721;28;20389;-62
2021/11/11 05:04:19;;;;;;;;;;;;;;;-0.79;58.44;96100.41;5001786;28;19922;-64
2021/11/11 05:06:45;;;;;;;;;;;;;;;-0.86;55.89;96099.97;5001571;28;20374;-63
2021/11/11 05:09:11;;;;;;;;;;;;;;;-0.85;59.78;96100.78;5001835;28;19947;-63
2021/11/11 05:11:36;;;;;;;;;;;;;;;-0.88;58.54;96099.19;4999660;28;19922;-63
2021/11/11 05:14:01;;;;;;;;;;;;;;;-0.89;59.72;96108.00;5001420;28;19918;-62
2021/11/11 05:16:27;;;;;;;;;;;;;;;-0.92;61.25;96102.13;5000737;28;19925;-63
2021/11/11 05:18:52;;;;;;;;;;;;;;;-1.06;57.27;96092.47;5001367;28;20172;-64
2021/11/11 05:21:17;;;;;;;;;;;;;;;-1.02;58.96;96093.97;5001194;28;19929;-63
2021/11/11 05:23:43;;;;;;;;;;;;;;;-0.96;59.66;96094.47;5001316;28;19976;-62
2021/11/11 05:26:08;;;;;;;;;;;;;;;-0.92;60.11;96091.66;5001373;28;20022;-64
2021/11/11 05:28:33;;;;;;;;;;;;;;;-0.88;62.09;96080.91;5001030;28;19928;-64
2021/11/11 05:30:59;;;;;;;;;;;;;;;-0.86;61.74;96086.88;5001028;28;19918;-64
2021/11/11 05:33:24;;;;;;;;;;;;;;;-0.85;59.58;96079.88;5001586;28;19924;-63
2021/11/11 05:35:49;;;;;;;;;;;;;;;-0.86;60.54;96092.13;5001053;28;19918;-62
2021/11/11 05:38:15;;;;;;;;;;;;;;;-0.86;59.56;96099.09;5001625;28;20115;-62
2021/11/11 05:40:40;;;;;;;;;;;;;;;-1.34;50.80;96094.97;5001022;28;20335;-62
2021/11/11 05:43:05;;;;;;;;;;;;;;;-1.58;52.05;96105.94;4991855;28;20210;-62
2021/11/11 05:45:31;;;;;;;;;;;;;;;-1.51;55.49;96094.22;4998638;28;19917;-63
2021/11/11 05:47:56;;;;;;;;;;;;;;;-1.25;58.18;96104.84;5000305;28;19952;-63
2021/11/11 05:50:21;;;;;;;;;;;;;;;-1.06;59.46;96101.13;4999533;28;19922;-64
2021/11/11 05:52:47;;;;;;;;;;;;;;;-0.92;60.90;96105.56;5000925;28;20135;-64
2021/11/11 05:55:12;;;;;;;;;;;;;;;-0.87;58.80;96098.28;4992644;28;19995;-63
2021/11/11 05:57:37;;;;;;;;;;;;;;;-0.83;59.27;96091.09;4996105;28;20039;-63
2021/11/11 06:00:04;;;;;;;;;;;;;;;-0.83;59.30;96091.09;5000559;28;20492;-64
2021/11/11 06:02:29;;;;;;;;;;;;;;;-0.86;57.32;96086.88;4998655;28;20397;-63
2021/11/11 06:04:55;;;;;;;;;;;;;;;-0.87;58.64;96080.00;5000531;28;20311;-63
2021/11/11 06:07:20;;;;;;;;;;;;;;;-0.89;58.44;96083.59;5000513;28;20282;-64
2021/11/11 06:09:45;;;;;;;;;;;;;;;-0.90;59.96;96087.16;5000129;28;19922;-63
2021/11/11 06:12:10;;;;;;;;;;;;;;;-0.92;59.26;96089.88;4999954;28;20188;-62
2021/11/11 06:14:36;;;;;;;;;;;;;;;-0.93;59.00;96087.34;5000288;28;19918;-64
2021/11/11 06:17:05;;;;;;;;;;;;;;;-0.98;56.55;96091.06;4999965;28;19921;-64
2021/11/11 06:19:32;;;;;;;;;;;;;;;-0.93;57.97;96100.41;5000335;28;19925;-64
2021/11/11 06:21:57;;;;;;;;;;;;;;;-0.93;58.11;96105.66;5000546;28;19937;-63
2021/11/11 06:24:22;;;;;;;;;;;;;;;-0.92;58.04;96102.13;4999799;28;19996;-64
2021/11/11 06:26:48;;;;;;;;;;;;;;;-0.91;58.50;96107.25;5000339;28;20167;-64
2021/11/11 06:29:13;;;;;;;;;;;;;;;-1.03;57.91;96107.94;5000438;28;20044;-64
2021/11/11 06:31:38;;;;;;;;;;;;;;;-1.01;60.21;96114.78;5000389;28;20067;-63
2021/11/11 06:34:04;;;;;;;;;;;;;;;-0.95;59.71;96121.41;5000592;28;20070;-64
2021/11/11 06:36:29;;;;;;;;;;;;;;;-0.88;58.75;96122.72;5000434;28;19922;-64
2021/11/11 06:38:54;;;;;;;;;;;;;;;-0.84;58.79;96132.06;4999036;28;19935;-63
2021/11/11 06:41:19;;;;;;;;;;;;;;;-0.83;60.25;96135.53;5000019;28;19928;-64
2021/11/11 06:43:45;;;;;;;;;;;;;;;-0.83;57.21;96141.63;4987067;28;19921;-64
2021/11/11 06:46:10;;;;;;;;;;;;;;;-0.78;55.19;96137.88;5000618;28;19988;-62
2021/11/11 06:48:35;;;;;;;;;;;;;;;-0.77;56.62;96140.41;4998479;28;20158;-63
2021/11/11 06:51:01;;;;;;;;;;;;;;;-0.77;56.03;96139.53;4998600;28;19928;-64
2021/11/11 06:53:26;;;;;;;;;;;;;;;-0.75;54.86;96142.94;5000588;28;19913;-64
2021/11/11 06:55:51;;;;;;;;;;;;;;;-0.67;58.05;96145.06;5000064;28;19984;-64
2021/11/11 06:58:20;;;;;;;;;;;;;;;-0.61;58.47;96155.97;5000156;28;19924;-64
2021/11/11 07:00:45;;;;;;;;;;;;;;;-0.56;58.09;96155.69;4999360;28;19925;-63
2021/11/11 07:03:10;;;;;;;;;;;;;;;-0.55;56.23;96157.38;4999617;28;20405;-64
2021/11/11 07:05:36;;;;;;;;;;;;;;;-0.54;56.58;96158.22;4996436;28;19922;-64
2021/11/11 07:08:03;;;;;;;;;;;;;;;-0.48;56.43;96158.66;4998400;28;20390;-65
2021/11/11 07:10:28;;;;;;;;;;;;;;;-0.46;51.86;96154.19;4998503;28;19917;-63
2021/11/11 07:12:53;;;;;;;;;;;;;;;-0.45;55.34;96155.03;4999872;28;19948;-64
2021/11/11 07:15:18;;;;;;;;;;;;;;;-0.35;56.82;96150.06;4997859;28;20245;-64
2021/11/11 07:17:44;;;;;;;;;;;;;;;-0.23;58.90;96149.28;5003155;28;20126;-65
2021/11/11 07:20:10;;;;;;;;;;;;;;;-0.15;59.46;96158.41;5003037;28;20008;-64
2021/11/11 07:22:36;;;;;;;;;;;;;;;-0.05;58.37;96155.13;5003498;28;19921;-64
2021/11/11 07:25:01;;;;;;;;;;;;;;;0.03;56.63;96162.50;5018160;28;20019;-65
2021/11/11 07:27:26;;;;;;;;;;;;;;;0.10;57.55;96164.72;5002418;28;20016;-64
2021/11/11 07:29:52;;;;;;;;;;;;;;;0.17;57.42;96172.06;5003419;28;20406;-64
2021/11/11 07:32:17;;;;;;;;;;;;;;;0.29;57.38;96169.59;5003299;28;20109;-64
2021/11/11 07:34:43;;;;;;;;;;;;;;;0.38;57.63;96174.22;5002637;28;19949;-64
2021/11/11 07:37:08;;;;;;;;;;;;;;;0.42;56.60;96180.13;5001540;28;19922;-65
2021/11/11 07:39:34;;;;;;;;;;;;;;;0.41;51.20;96181.06;5001948;28;19976;-65
2021/11/11 07:41:59;;;;;;;;;;;;;;;0.43;54.38;96180.03;4980631;28;19925;-64
2021/11/11 07:44:24;;;;;;;;;;;;;;;0.63;56.77;96184.88;4986171;28;19941;-65
2021/11/11 07:46:50;;;;;;;;;;;;;;;0.80;54.86;96189.84;4994897;28;19932;-64
2021/11/11 07:49:15;;;;;;;;;;;;;;;0.97;56.45;96190.50;5004165;28;20389;-65
2021/11/11 07:51:40;;;;;;;;;;;;;;;1.14;56.55;96191.13;5000471;28;19952;-64
2021/11/11 07:54:05;;;;;;;;;;;;;;;1.29;57.14;96191.88;4998742;28;19917;-64
2021/11/11 07:56:31;;;;;;;;;;;;;;;1.38;56.74;96193.88;4997488;28;19933;-64
2021/11/11 07:58:56;;;;;;;;;;;;;;;1.51;53.88;96196.47;4997098;28;19943;-65
2021/11/11 08:01:21;;;;;;;;;;;;;;;1.62;55.72;96199.22;4998512;28;20286;-64
2021/11/11 08:03:47;;;;;;;;;;;;;;;1.74;57.31;96194.88;4997531;28;20187;-64
2021/11/11 08:06:12;;;;;;;;;;;;;;;1.81;55.20;96197.09;4998317;28;19932;-64
2021/11/11 08:08:38;;;;;;;;;;;;;;;1.87;55.57;96194.88;4996232;28;19972;-65
2021/11/11 08:11:03;;;;;;;;;;;;;;;1.99;55.87;96189.69;5012361;28;19924;-64
2021/11/11 08:13:28;;;;;;;;;;;;;;;2.08;55.51;96183.75;4998642;28;19914;-63
2021/11/11 08:15:54;;;;;;;;;;;;;;;2.18;57.00;96188.38;4996248;28;20110;-65
2021/11/11 08:18:19;;;;;;;;;;;;;;;2.29;55.91;96191.06;5008878;28;19921;-64
2021/11/11 08:20:46;;;;;;;;;;;;;;;2.38;55.08;96185.13;4996224;28;20108;-64
2021/11/11 08:23:11;;;;;;;;;;;;;;;2.55;56.66;96188.28;4996617;28;19932;-65
2021/11/11 08:25:37;;;;;;;;;;;;;;;2.65;55.96;96188.44;4995576;28;19921;-65
2021/11/11 08:28:02;;;;;;;;;;;;;;;2.69;53.72;96187.25;4997032;28;20548;-65
2021/11/11 08:30:27;;;;;;;;;;;;;;;2.80;54.44;96191.75;4997570;28;19933;-65
2021/11/11 08:32:53;;;;;;;;;;;;;;;2.96;56.10;96188.78;4996713;28;20281;-66
2021/11/11 08:35:18;;;;;;;;;;;;;;;3.08;54.87;96192.28;4996300;28;19925;-65
2021/11/11 08:37:44;;;;;;;;;;;;;;;3.23;53.00;96194.72;4996196;28;20488;-66
2021/11/11 08:40:10;;;;;;;;;;;;;;;3.43;52.94;96187.88;4996616;28;19937;-65
2021/11/11 08:42:35;;;;;;;;;;;;;;;3.64;53.47;96188.03;4995435;28;20379;-65
2021/11/11 08:45:00;;;;;;;;;;;;;;;3.72;53.55;96192.72;4997638;28;20413;-64
2021/11/11 08:47:26;;;;;;;;;;;;;;;3.98;49.34;96189.00;4997731;28;20165;-65
2021/11/11 08:49:52;;;;;;;;;;;;;;;4.23;52.40;96185.22;4995208;28;19932;-64
2021/11/11 08:52:17;;;;;;;;;;;;;;;4.45;53.54;96194.00;4998182;28;20234;-65
2021/11/11 08:54:43;;;;;;;;;;;;;;;4.62;53.39;96184.72;4999428;28;20204;-65
2021/11/11 08:57:08;;;;;;;;;;;;;;;4.83;53.14;96186.56;4998744;28;20015;-66
2021/11/11 08:59:34;;;;;;;;;;;;;;;5.03;51.53;96176.94;4998786;28;19936;-65
2021/11/11 09:01:59;;;;;;;;;;;;;;;5.22;49.48;96175.44;4999716;28;20409;-64
2021/11/11 09:04:25;;;;;;;;;;;;;;;5.34;50.91;96179.66;4998345;28;20345;-65
2021/11/11 09:06:50;;;;;;;;;;;;;;;5.45;55.65;96180.56;4997420;28;19925;-66
2021/11/11 09:09:16;;;;;;;;;;;;;;;5.78;55.58;96172.50;4999148;28;20000;-65
2021/11/11 09:11:42;;;;;;;;;;;;;;;6.14;54.41;96178.13;4998771;28;19928;-65
2021/11/11 09:14:07;;;;;;;;;;;;;;;6.25;54.66;96177.19;4998883;28;20443;-65
2021/11/11 09:16:33;;;;;;;;;;;;;;;6.07;52.04;96185.78;4998670;28;20597;-64
2021/11/11 09:18:59;;;;;;;;;;;;;;;6.07;49.04;96185.78;4999416;28;20562;-65
2021/11/11 09:21:24;;;;;;;;;;;;;;;5.79;48.85;96188.22;4999354;28;19949;-66
2021/11/11 09:23:50;;;;;;;;;;;;;;;5.68;53.45;96191.78;4998166;28;19929;-65
2021/11/11 09:26:16;;;;;;;;;;;;;;;5.50;51.54;96193.38;4997774;28;19929;-66
2021/11/11 09:28:41;;;;;;;;;;;;;;;5.32;51.16;96186.03;4998081;28;20397;-66
2021/11/11 09:31:08;;;;;;;;;;;;;;;5.07;53.12;96194.22;4998130;28;19972;-65
2021/11/11 09:33:34;;;;;;;;;;;;;;;4.84;51.29;96191.69;5003643;28;19987;-66
2021/11/11 09:35:59;;;;;;;;;;;;;;;4.52;51.20;96194.38;4998677;28;20348;-66
2021/11/11 09:38:24;;;;;;;;;;;;;;;4.64;50.85;96187.22;4998855;28;20371;-65
2021/11/11 09:40:50;;;;;;;;;;;;;;;4.38;51.98;96201.59;4998413;28;20040;-66
2021/11/11 09:43:15;;;;;;;;;;;;;;;4.53;51.19;96201.31;4995604;28;20016;-65
2021/11/11 09:45:40;;;;;;;;;;;;;;;5.06;51.08;96208.41;4998773;28;19936;-66
2021/11/11 09:48:06;;;;;;;;;;;;;;;4.86;50.72;96201.28;4996818;28;19925;-65
2021/11/11 09:50:32;;;;;;;;;;;;;;;4.70;51.60;96202.56;4998086;28;19932;-66
2021/11/11 09:53:03;;;;;;;;;;;;;;;4.93;50.47;96207.75;4997137;28;19925;-65
2021/11/11 10:00:57;;;;;;;;;;;;;;;5.38;48.56;96185.53;4998544;28;20100;-65
2021/11/11 10:03:22;;;;;;;;;;;;;;;5.79;51.07;96192.66;4995738;28;20400;-65
2021/11/11 10:05:48;;;;;;;;;;;;;;;6.06;48.13;96175.34;4987587;28;19922;-66
2021/11/11 10:08:48;;;;;;;;;;;;;;;6.06;46.84;96183.28;4997762;28;20370;-66
2021/11/11 10:11:24;;;;;;;;;;;;;;;6.33;50.10;96179.16;4951257;28;19926;-65
2021/11/11 10:13:53;;;;;;;;;;;;;;;6.18;46.87;96182.19;4986838;28;19932;-66
2021/11/11 10:16:18;;;;;;;;;;;;;;;6.79;46.44;96176.81;4996956;28;20374;-64
2021/11/11 10:18:45;;;;;;;;;;;;;;;6.69;45.11;96179.47;4997745;28;20143;-65
2021/11/11 10:21:31;;;;;;;;;;;;;;;6.53;46.62;96187.97;4995906;28;20358;-65
2021/11/11 10:23:58;;;;;;;;;;;;;;;6.86;44.39;96185.88;4996709;28;19926;-65
2021/11/11 10:26:30;;;;;;;;;;;;;;;6.76;47.32;96180.59;4997912;28;19960;-66
2021/11/11 10:28:55;;;;;;;;;;;;;;;6.54;48.06;96188.81;4997250;28;19935;-65
2021/11/11 10:31:20;;;;;;;;;;;;;;;6.84;47.67;96179.88;4996213;28;19925;-66
2021/11/11 10:34:04;;;;;;;;;;;;;;;7.07;46.24;96178.75;4996786;28;19933;-66
2021/11/11 10:36:49;;;;;;;;;;;;;;;6.94;46.37;96179.88;4993050;28;19926;-66
2021/11/11 10:39:21;;;;;;;;;;;;;;;7.15;44.59;96177.06;4998071;28;20016;-65
2021/11/11 10:41:46;;;;;;;;;;;;;;;7.18;43.60;96180.41;4997933;28;19952;-66
2021/11/11 10:44:20;;;;;;;;;;;;;;;7.68;42.30;96168.66;4994374;28;20345;-65
2021/11/11 10:46:51;;;;;;;;;;;;;;;7.17;44.26;96170.78;4996902;28;20000;-65
2021/11/11 10:49:20;;;;;;;;;;;;;;;7.62;43.24;96170.06;4999117;28;20012;-65
2021/11/11 10:51:45;;;;;;;;;;;;;;;7.28;43.63;96167.97;5000649;28;19926;-66
2021/11/11 10:54:11;;;;;;;;;;;;;;;7.31;43.61;96169.50;5001563;28;19928;-66
2021/11/11 10:56:46;;;;;;;;;;;;;;;7.32;43.73;96171.16;5000716;28;19980;-65
2021/11/11 10:59:15;;;;;;;;;;;;;;;7.40;45.11;96171.28;4997341;28;20020;-68
2021/11/11 11:01:40;;;;;;;;;;;;;;;7.47;43.99;96172.38;5000100;28;19959;-66
2021/11/11 11:04:06;;;;;;;;;;;;;;;7.68;45.69;96168.66;4998842;28;20297;-66
2021/11/11 11:06:33;;;;;;;;;;;;;;;7.84;43.83;96153.97;5001842;28;19921;-67
2021/11/11 11:08:59;;;;;;;;;;;;;;;7.54;43.93;96152.28;5016479;28;19921;-66
2021/11/11 11:11:32;;;;;;;;;;;;;;;7.44;43.20;96148.81;5001804;28;20505;-66
2021/11/11 11:13:58;;;;;;;;;;;;;;;7.26;43.70;96154.88;4994356;28;20410;-67
2021/11/11 11:16:24;;;;;;;;;;;;;;;7.20;43.10;96150.16;5000811;28;19925;-67
2021/11/11 11:19:09;;;;;;;;;;;;;;;7.00;43.15;96160.78;5000770;28;19932;-66
2021/11/11 11:21:36;;;;;;;;;;;;;;;6.87;44.67;96160.25;4994765;28;20331;-67
2021/11/11 11:24:03;;;;;;;;;;;;;;;7.36;42.85;96167.25;5000325;28;19925;-67
2021/11/11 11:26:32;;;;;;;;;;;;;;;7.81;41.46;96162.22;5001163;28;19922;-66
2021/11/11 11:31:32;;;;;;;;;;;;;;;7.25;42.48;96168.25;5000413;28;20131;-67
2021/11/11 11:33:57;;;;;;;;;;;;;;;7.00;42.61;96159.94;5000550;28;20313;-65
2021/11/11 11:36:40;;;;;;;;;;;;;;;7.40;42.21;96155.38;4999599;28;19994;-67
2021/11/11 11:39:06;;;;;;;;;;;;;;;7.09;42.61;96161.75;4997155;28;20398;-66
2021/11/11 11:41:38;;;;;;;;;;;;;;;7.40;42.79;96155.38;4998371;28;19990;-67
2021/11/11 11:44:21;;;;;;;;;;;;;;;7.54;43.20;96154.94;5002468;28;20597;-68
2021/11/11 11:49:53;;;;;;;;;;;;;;;9.55;38.59;96155.78;4969696;28;20785;-66
2021/11/11 11:52:18;;;;;;;;;;;;;;;10.84;35.52;96144.16;4992842;28;19995;-67
2021/11/11 12:07:53;;;;;;;;;;;;;;;14.65;29.14;96129.97;4996860;28;19929;-67
2021/11/11 12:10:29;;;;;;;;;;;;;;;14.49;28.85;96130.25;5000372;28;20012;-67
2021/11/11 12:13:32;;;;;;;;;;;;;;;14.69;27.75;96128.56;4999622;28;20135;-67
2021/11/11 12:16:25;;;;;;;;;;;;;;;15.92;26.97;96131.13;4990972;28;19926;-67
2021/11/11 12:39:35;;;;;;;;;;;;;;;16.29;25.06;96109.38;4999632;28;20270;-66
2021/11/11 12:42:02;;;;;;;;;;;;;;;16.94;23.76;96107.19;4999175;28;19925;-67
2021/11/11 12:44:28;;;;;;;;;;;;;;;18.26;24.28;96108.16;4998701;28;19925;-67
2021/11/11 12:46:53;;;;;;;;;;;;;;;18.13;22.36;96102.84;4998731;28;19944;-67
2021/11/11 12:49:21;;;;;;;;;;;;;;;19.67;19.38;96099.19;4998874;28;19933;-66
2021/11/11 12:52:05;;;;;;;;;;;;;;;21.66;19.61;96097.78;4999480;28;20189;-66
2021/11/11 12:54:30;;;;;;;;;;;;;;;22.20;17.43;96096.72;4997717;28;19957;-66
2021/11/11 12:57:01;;;;;;;;;;;;;;;22.22;18.77;96097.28;4999116;28;19964;-66
2021/11/11 12:59:26;;;;;;;;;;;;;;;22.77;17.50;96086.91;4996448;28;19926;-65
2021/11/11 13:01:52;;;;;;;;;;;;;;;23.41;16.62;96088.47;4997579;28;19956;-66
2021/11/11 13:04:19;;;;;;;;;;;;;;;22.51;16.39;96091.88;5000544;28;20508;-66
2021/11/11 13:06:45;;;;;;;;;;;;;;;22.15;18.30;96095.56;4997724;28;19922;-66
2021/11/11 13:09:20;;;;;;;;;;;;;;;23.54;18.67;96089.19;4998966;28;19932;-66
2021/11/11 13:11:46;;;;;;;;;;;;;;;24.51;17.65;96087.91;4997111;28;19961;-67
2021/11/11 13:14:27;;;;;;;;;;;;;;;24.17;15.75;96088.91;4998145;28;19929;-65
2021/11/11 13:16:55;;;;;;;;;;;;;;;23.22;15.86;96078.94;4996315;28;19925;-66
2021/11/11 13:19:36;;;;;;;;;;;;;;;22.07;16.94;96076.97;4997503;28;20031;-66
2021/11/11 13:22:08;;;;;;;;;;;;;;;22.87;17.60;96070.78;4998818;28;20384;-65
2021/11/11 13:24:49;;;;;;;;;;;;;;;22.71;16.13;96077.03;5013237;28;20246;-66
2021/11/11 14:01:14;;;;;;;;;;;;;;;23.53;16.28;96091.06;4997846;28;20036;-65
2021/11/11 15:17:12;;;;;;;;;;;;;;;19.37;18.53;96108.03;4997141;28;20301;-65
2021/11/11 16:01:30;;;;;;;;;;;;;;;10.26;36.50;96127.31;4993872;28;19941;-63
2021/11/11 16:25:39;;;;;;;;;;;;;;;6.84;41.57;96136.72;4999349;28;20173;-65
2021/11/11 16:28:05;;;;;;;;;;;;;;;6.66;41.69;96139.25;5001573;28;20237;-64
2021/11/11 16:30:31;;;;;;;;;;;;;;;6.42;42.08;96140.47;5000113;28;20004;-63
2021/11/11 16:32:57;;;;;;;;;;;;;;;6.12;42.56;96145.69;4999946;28;20577;-64
2021/11/11 16:35:22;;;;;;;;;;;;;;;5.79;42.91;96145.94;4999061;28;19925;-64
2021/11/11 16:37:48;;;;;;;;;;;;;;;5.50;43.67;96151.13;4999773;28;20521;-65
2021/11/11 16:40:14;;;;;;;;;;;;;;;5.27;44.55;96153.94;4998382;28;20084;-64
2021/11/11 16:42:40;;;;;;;;;;;;;;;5.05;44.34;96151.28;4992336;28;20060;-65